Terminal Aerodrome Forecast
Issued by NWS Charleston, WV

Current Version | Previous Version | Graphics & Text | Print | Product List | Glossary On
Versions: 1 2 3 4 5 6 7 8 9 10 11 12 13 14 15 16 17 18 19 20 21 22 23 24 25 26
000
FTUS41 KRLX 151733
TAFPKB
TAF
KPKB 151733Z 1518/1618 00000KT 5SM HZ BKN015 OVC030
     FM152100 00000KT 6SM HZ OVC030
     FM152200 VRB03KT 5SM -RA OVC050
     FM160200 00000KT 4SM BR OVC025
     FM160700 VRB03KT 2SM -RA BR OVC020
     FM161100 00000KT 2SM BR OVC007
     FM161400 00000KT 2SM BR OVC004
     FM161600 00000KT 4SM -RA BR OVC008=

USA.gov is the U.S. government's official web portal to all federal, state and local government web resources and services.